Time;durP1;ratioP1;P1;durP2;ratioP2;P2;SDS_P1;SDS_P2;PMS_P1;PMS_P2;Temp;Humidity;BMP_temperature;BMP_pressure;BME280_temperature;BME280_humidity;BME280_pressure;Samples;Min_cycle;Max_cycle;Signal;HPM_P1;HPM_P2
2022/03/06 00:00:34;;;;;;;8.40;6.45;;;;;;;;;;10344733;28;20208;-78
2022/03/06 00:05:36;;;;;;;10.25;6.32;;;;;;;;;;10344635;28;20205;-78
2022/03/06 00:10:37;;;;;;;11.38;7.80;;;;;;;;;;10345191;28;20212;-78
2022/03/06 00:15:38;;;;;;;7.57;6.97;;;;;;;;;;10342888;28;20522;-78
2022/03/06 00:20:40;;;;;;;8.40;7.60;;;;;;;;;;10343285;28;20287;-77
2022/03/06 00:25:41;;;;;;;9.70;7.40;;;;;;;;;;10343237;28;20208;-78
2022/03/06 00:30:42;;;;;;;9.25;8.07;;;;;;;;;;10341007;28;20243;-79
2022/03/06 00:35:43;;;;;;;10.00;8.05;;;;;;;;;;10343669;28;20209;-77
2022/03/06 00:40:45;;;;;;;12.10;7.78;;;;;;;;;;10340417;28;20336;-78
2022/03/06 00:45:46;;;;;;;9.52;8.20;;;;;;;;;;10340638;28;20200;-78
2022/03/06 00:50:47;;;;;;;8.57;7.70;;;;;;;;;;10340801;28;20212;-78
2022/03/06 00:55:49;;;;;;;8.30;7.45;;;;;;;;;;10338890;28;20255;-80
2022/03/06 01:00:50;;;;;;;8.50;7.70;;;;;;;;;;10341835;28;20707;-78
2022/03/06 01:05:51;;;;;;;8.75;7.28;;;;;;;;;;10342626;28;20648;-79
2022/03/06 01:10:53;;;;;;;11.10;8.00;;;;;;;;;;10374152;28;20258;-79
2022/03/06 01:15:54;;;;;;;9.38;8.40;;;;;;;;;;10340700;28;20299;-78
2022/03/06 01:20:55;;;;;;;10.70;8.20;;;;;;;;;;10342247;28;20201;-78
2022/03/06 01:25:56;;;;;;;10.70;8.20;;;;;;;;;;10342677;28;20208;-78
2022/03/06 01:30:57;;;;;;;9.82;8.25;;;;;;;;;;10340228;28;20670;-79
2022/03/06 01:35:58;;;;;;;7.65;6.88;;;;;;;;;;10339703;28;20302;-78
2022/03/06 01:40:59;;;;;;;8.63;7.47;;;;;;;;;;10342946;28;20231;-77
2022/03/06 01:46:00;;;;;;;13.35;7.97;;;;;;;;;;10336404;28;20204;-79
2022/03/06 01:51:01;;;;;;;9.60;7.57;;;;;;;;;;10369728;28;20209;-79
2022/03/06 01:56:03;;;;;;;8.40;7.50;;;;;;;;;;10340782;28;20256;-79
2022/03/06 02:01:04;;;;;;;9.20;7.25;;;;;;;;;;10336905;28;20220;-79
2022/03/06 02:06:09;;;;;;;8.38;7.40;;;;;;;;;;10339530;28;20634;-79
2022/03/06 02:11:10;;;;;;;8.82;7.43;;;;;;;;;;10337266;28;20212;-78
2022/03/06 02:16:11;;;;;;;8.60;7.35;;;;;;;;;;10341512;28;20254;-78
2022/03/06 02:21:13;;;;;;;9.63;7.60;;;;;;;;;;10336423;28;20782;-78
2022/03/06 02:26:14;;;;;;;11.40;7.57;;;;;;;;;;10343211;28;20225;-78
2022/03/06 02:31:16;;;;;;;8.88;7.55;;;;;;;;;;10369905;28;20227;-78
2022/03/06 02:36:17;;;;;;;8.63;7.60;;;;;;;;;;10338337;28;20274;-78
2022/03/06 02:41:18;;;;;;;7.55;6.93;;;;;;;;;;10373120;28;20224;-77
2022/03/06 02:46:19;;;;;;;9.60;7.20;;;;;;;;;;10339557;28;20232;-78
2022/03/06 02:51:20;;;;;;;7.93;6.63;;;;;;;;;;10337739;28;20295;-80
2022/03/06 02:56:21;;;;;;;7.57;6.85;;;;;;;;;;10338189;28;20212;-80
2022/03/06 03:01:22;;;;;;;7.75;6.05;;;;;;;;;;10337991;28;20224;-78
2022/03/06 03:06:23;;;;;;;8.43;6.75;;;;;;;;;;10340446;28;20283;-79
2022/03/06 03:11:24;;;;;;;7.10;6.40;;;;;;;;;;10370463;28;20221;-78
2022/03/06 03:16:25;;;;;;;7.03;5.40;;;;;;;;;;10337736;28;20236;-78
2022/03/06 03:21:26;;;;;;;6.32;5.72;;;;;;;;;;10336719;28;20228;-77
2022/03/06 03:26:27;;;;;;;6.15;4.95;;;;;;;;;;10335313;28;20252;-77
2022/03/06 03:31:28;;;;;;;6.15;5.57;;;;;;;;;;10372039;28;20224;-78
2022/03/06 03:36:30;;;;;;;5.45;4.32;;;;;;;;;;10345503;28;20220;-77
2022/03/06 03:41:31;;;;;;;4.85;4.55;;;;;;;;;;10341938;28;20712;-78
2022/03/06 03:46:32;;;;;;;5.47;4.78;;;;;;;;;;10344570;28;20240;-78
2022/03/06 03:51:33;;;;;;;11.52;4.88;;;;;;;;;;10346544;28;20318;-78
2022/03/06 03:56:34;;;;;;;4.70;4.28;;;;;;;;;;10343806;28;20204;-77
2022/03/06 04:01:35;;;;;;;4.60;4.22;;;;;;;;;;10341542;28;20220;-78
2022/03/06 04:06:36;;;;;;;5.82;4.43;;;;;;;;;;10344334;28;20684;-78
2022/03/06 04:11:37;;;;;;;4.70;4.00;;;;;;;;;;10343119;28;20650;-78
2022/03/06 04:16:38;;;;;;;4.10;3.90;;;;;;;;;;10345750;28;20208;-78
2022/03/06 04:21:40;;;;;;;4.72;4.18;;;;;;;;;;10374843;28;20189;-79
2022/03/06 04:26:41;;;;;;;3.75;3.55;;;;;;;;;;10340861;28;20257;-77
2022/03/06 04:31:42;;;;;;;4.70;4.25;;;;;;;;;;10375305;28;20212;-78
2022/03/06 04:36:43;;;;;;;3.83;3.50;;;;;;;;;;10341152;28;20207;-78
2022/03/06 04:41:44;;;;;;;4.30;3.90;;;;;;;;;;10342643;28;20235;-78
2022/03/06 04:46:46;;;;;;;4.45;3.67;;;;;;;;;;10342841;28;20231;-78
2022/03/06 04:51:47;;;;;;;3.88;3.30;;;;;;;;;;10354797;28;20200;-78
2022/03/06 04:56:48;;;;;;;3.33;3.03;;;;;;;;;;10370921;28;20821;-78
2022/03/06 05:01:49;;;;;;;3.25;3.08;;;;;;;;;;10343700;28;20591;-78
2022/03/06 05:06:51;;;;;;;3.50;2.60;;;;;;;;;;10341773;28;20197;-77
2022/03/06 05:11:52;;;;;;;2.95;2.75;;;;;;;;;;10344005;28;20227;-80
2022/03/06 05:16:53;;;;;;;2.33;2.22;;;;;;;;;;10339657;28;20297;-78
2022/03/06 05:21:54;;;;;;;3.05;2.50;;;;;;;;;;10371947;28;20315;-78
2022/03/06 05:26:55;;;;;;;3.35;2.75;;;;;;;;;;10342214;28;20206;-79
2022/03/06 05:31:56;;;;;;;3.55;2.55;;;;;;;;;;10339595;28;20215;-79
2022/03/06 05:36:57;;;;;;;3.38;3.03;;;;;;;;;;10335706;28;20223;-78
2022/03/06 05:41:58;;;;;;;2.53;2.38;;;;;;;;;;10338701;28;20222;-78
2022/03/06 05:46:59;;;;;;;2.35;2.20;;;;;;;;;;10339867;28;20254;-78
2022/03/06 05:52:02;;;;;;;2.30;1.80;;;;;;;;;;10337178;28;20695;-79
2022/03/06 05:57:03;;;;;;;2.78;2.67;;;;;;;;;;10366908;28;20235;-79
2022/03/06 06:02:04;;;;;;;4.20;2.47;;;;;;;;;;10336920;28;20223;-78
2022/03/06 06:07:06;;;;;;;2.45;2.25;;;;;;;;;;10338762;28;20205;-77
2022/03/06 06:12:07;;;;;;;3.55;2.42;;;;;;;;;;10338620;28;20211;-79
2022/03/06 06:17:08;;;;;;;2.40;2.20;;;;;;;;;;10338414;28;20201;-79
2022/03/06 06:22:09;;;;;;;2.33;2.22;;;;;;;;;;10339592;28;20276;-79
2022/03/06 06:27:10;;;;;;;2.75;1.90;;;;;;;;;;10339553;28;20204;-79
2022/03/06 06:32:11;;;;;;;2.05;1.95;;;;;;;;;;10339036;28;20228;-79
2022/03/06 06:37:15;;;;;;;2.15;2.05;;;;;;;;;;10336802;28;20330;-80
2022/03/06 06:42:16;;;;;;;2.35;2.05;;;;;;;;;;10338696;28;20569;-80
2022/03/06 06:47:17;;;;;;;1.90;1.80;;;;;;;;;;10337582;28;20209;-79
2022/03/06 06:52:18;;;;;;;1.92;1.83;;;;;;;;;;10368063;28;20204;-80
2022/03/06 06:57:19;;;;;;;3.60;2.15;;;;;;;;;;10341029;28;20564;-80
2022/03/06 07:02:20;;;;;;;3.03;2.08;;;;;;;;;;10337256;28;20208;-80
2022/03/06 07:07:21;;;;;;;2.33;2.22;;;;;;;;;;10347269;28;20203;-80
2022/03/06 07:12:22;;;;;;;1.75;1.75;;;;;;;;;;10344747;28;20688;-80
2022/03/06 07:17:23;;;;;;;2.50;2.30;;;;;;;;;;10342705;28;20215;-80
2022/03/06 07:22:24;;;;;;;2.45;2.00;;;;;;;;;;10348962;28;20578;-79
2022/03/06 07:27:25;;;;;;;2.03;1.92;;;;;;;;;;10345961;28;20207;-80
2022/03/06 07:32:26;;;;;;;1.92;1.88;;;;;;;;;;10343925;28;20217;-81
2022/03/06 07:37:27;;;;;;;5.30;2.22;;;;;;;;;;10344533;28;20306;-80
2022/03/06 07:42:28;;;;;;;4.28;1.63;;;;;;;;;;10378107;28;20202;-81
2022/03/06 07:47:29;;;;;;;1.77;1.60;;;;;;;;;;10377448;28;20210;-81
2022/03/06 07:52:30;;;;;;;1.20;1.20;;;;;;;;;;10345841;28;20216;-79
2022/03/06 07:57:32;;;;;;;1.55;1.48;;;;;;;;;;10339551;28;20208;-81
2022/03/06 08:02:33;;;;;;;1.85;0.88;;;;;;;;;;10338588;28;20374;-81
2022/03/06 08:07:34;;;;;;;1.10;1.10;;;;;;;;;;10340405;28;20246;-81
2022/03/06 08:12:35;;;;;;;0.90;0.90;;;;;;;;;;10374562;28;20196;-81
2022/03/06 08:17:36;;;;;;;0.90;0.90;;;;;;;;;;10344409;28;20302;-81
2022/03/06 08:22:37;;;;;;;0.88;0.85;;;;;;;;;;10342899;28;20231;-81
2022/03/06 08:27:38;;;;;;;0.80;0.80;;;;;;;;;;10377744;28;20553;-80
2022/03/06 08:32:39;;;;;;;1.00;0.88;;;;;;;;;;10337612;28;20208;-80
2022/03/06 08:37:40;;;;;;;1.05;1.05;;;;;;;;;;10343437;28;20235;-79
2022/03/06 08:42:41;;;;;;;0.98;0.98;;;;;;;;;;10340570;28;20199;-81
2022/03/06 08:47:42;;;;;;;1.52;0.80;;;;;;;;;;10338080;28;20288;-81
2022/03/06 08:52:43;;;;;;;1.33;1.13;;;;;;;;;;10343966;28;20292;-81
2022/03/06 08:57:44;;;;;;;3.55;0.80;;;;;;;;;;10374292;28;20243;-81
2022/03/06 09:02:45;;;;;;;1.20;0.77;;;;;;;;;;10341503;28;20219;-81
2022/03/06 09:07:47;;;;;;;1.60;0.90;;;;;;;;;;10345101;28;20761;-79
2022/03/06 09:12:48;;;;;;;0.80;0.80;;;;;;;;;;10339212;28;20204;-78
2022/03/06 09:17:49;;;;;;;1.85;0.98;;;;;;;;;;10377505;28;20846;-77
2022/03/06 09:22:50;;;;;;;0.85;0.85;;;;;;;;;;10341391;28;20658;-78
2022/03/06 09:27:51;;;;;;;2.88;1.17;;;;;;;;;;10338621;28;20231;-77
2022/03/06 09:32:52;;;;;;;2.25;1.67;;;;;;;;;;10336725;28;20224;-77
2022/03/06 09:37:54;;;;;;;5.13;2.38;;;;;;;;;;10339968;28;20228;-78
2022/03/06 09:42:55;;;;;;;1.40;1.25;;;;;;;;;;10335414;28;20303;-80
2022/03/06 09:47:58;;;;;;;1.30;1.27;;;;;;;;;;10337154;28;20204;-78
2022/03/06 09:52:59;;;;;;;1.80;1.80;;;;;;;;;;10342895;28;20210;-78
2022/03/06 09:58:00;;;;;;;2.17;1.40;;;;;;;;;;10374816;28;20647;-82
2022/03/06 10:03:02;;;;;;;2.47;2.33;;;;;;;;;;10338353;28;20719;-79
2022/03/06 10:08:12;;;;;;;3.70;1.95;;;;;;;;;;10338732;28;20209;-80
2022/03/06 10:13:22;;;;;;;0.90;0.90;;;;;;;;;;10338612;28;20858;-81
2022/03/06 10:18:23;;;;;;;0.98;0.60;;;;;;;;;;10340661;28;20222;-79
2022/03/06 10:23:25;;;;;;;1.13;0.50;;;;;;;;;;10339941;28;20204;-78
2022/03/06 10:28:26;;;;;;;0.60;0.60;;;;;;;;;;10337443;28;20208;-79
2022/03/06 10:33:27;;;;;;;0.60;0.60;;;;;;;;;;10341759;28;20220;-80
2022/03/06 10:38:32;;;;;;;1.67;0.45;;;;;;;;;;10374260;28;20778;-80
2022/03/06 10:43:35;;;;;;;0.50;0.50;;;;;;;;;;10343985;28;20295;-79
2022/03/06 10:48:37;;;;;;;1.05;0.50;;;;;;;;;;10338067;28;20235;-79
2022/03/06 10:53:38;;;;;;;1.17;1.10;;;;;;;;;;10368300;28;20231;-79
2022/03/06 10:58:41;;;;;;;0.60;0.60;;;;;;;;;;10376990;28;20212;-77
2022/03/06 11:03:42;;;;;;;0.70;0.70;;;;;;;;;;10375234;28;20303;-77
2022/03/06 11:08:44;;;;;;;0.50;0.50;;;;;;;;;;10337389;28;20982;-80
2022/03/06 11:13:45;;;;;;;0.60;0.60;;;;;;;;;;10373913;28;20679;-76
2022/03/06 11:18:46;;;;;;;1.67;0.80;;;;;;;;;;10341366;28;20895;-77
2022/03/06 11:23:49;;;;;;;1.23;1.00;;;;;;;;;;10333808;28;20270;-77
2022/03/06 11:29:01;;;;;;;1.52;0.70;;;;;;;;;;10342556;28;20235;-77
2022/03/06 11:34:03;;;;;;;3.60;0.80;;;;;;;;;;10341576;28;20602;-78
2022/03/06 11:39:05;;;;;;;0.60;0.60;;;;;;;;;;10338246;28;20235;-78
2022/03/06 11:44:25;;;;;;;0.63;0.63;;;;;;;;;;10340476;28;20220;-78
2022/03/06 11:49:36;;;;;;;2.83;1.20;;;;;;;;;;10347019;28;20208;-77
2022/03/06 11:54:42;;;;;;;1.65;1.58;;;;;;;;;;10378522;28;20224;-79
2022/03/06 11:59:44;;;;;;;2.50;2.40;;;;;;;;;;10351647;28;20568;-77
2022/03/06 12:04:46;;;;;;;1.10;1.10;;;;;;;;;;10343092;28;20240;-77
2022/03/06 12:09:48;;;;;;;1.30;1.20;;;;;;;;;;10350536;28;20209;-77
2022/03/06 12:14:51;;;;;;;1.90;0.70;;;;;;;;;;10348120;28;20208;-78
2022/03/06 12:19:52;;;;;;;1.30;1.20;;;;;;;;;;10342423;28;20266;-75
2022/03/06 12:25:16;;;;;;;1.17;0.80;;;;;;;;;;10341369;28;20312;-79
2022/03/06 12:30:18;;;;;;;0.98;0.98;;;;;;;;;;10341191;28;20225;-78
2022/03/06 12:35:22;;;;;;;0.73;0.73;;;;;;;;;;10345321;28;20215;-76
2022/03/06 12:40:27;;;;;;;0.85;0.70;;;;;;;;;;10344594;28;20243;-77
2022/03/06 12:45:28;;;;;;;0.90;0.90;;;;;;;;;;10346283;28;20205;-78
2022/03/06 12:50:30;;;;;;;1.27;1.20;;;;;;;;;;10374829;28;20239;-77
2022/03/06 12:55:31;;;;;;;2.42;1.15;;;;;;;;;;10379217;28;20216;-77
2022/03/06 13:00:33;;;;;;;1.95;0.70;;;;;;;;;;10342192;28;20981;-80
2022/03/06 13:05:35;;;;;;;1.70;0.73;;;;;;;;;;10325947;28;20579;-77
2022/03/06 13:10:36;;;;;;;0.60;0.60;;;;;;;;;;10366436;28;20204;-77
2022/03/06 13:15:38;;;;;;;0.55;0.50;;;;;;;;;;10336080;28;20258;-77
2022/03/06 13:20:40;;;;;;;0.55;0.52;;;;;;;;;;10334147;28;20683;-77
2022/03/06 13:25:41;;;;;;;1.58;0.70;;;;;;;;;;10338926;28;20216;-77
2022/03/06 13:30:42;;;;;;;0.70;0.70;;;;;;;;;;10334984;28;20231;-77
2022/03/06 13:35:44;;;;;;;0.70;0.60;;;;;;;;;;10337017;28;20211;-80
2022/03/06 13:40:46;;;;;;;1.55;0.70;;;;;;;;;;10354013;28;20225;-78
2022/03/06 13:45:55;;;;;;;0.85;0.60;;;;;;;;;;10330443;28;20287;-79
2022/03/06 13:50:57;;;;;;;0.98;0.98;;;;;;;;;;10328737;28;20215;-78
2022/03/06 13:56:01;;;;;;;0.60;0.60;;;;;;;;;;10336004;28;20692;-78
2022/03/06 14:01:02;;;;;;;0.70;0.70;;;;;;;;;;10326943;28;20220;-79
2022/03/06 14:06:05;;;;;;;1.00;1.00;;;;;;;;;;10330521;28;20215;-77
2022/03/06 14:11:07;;;;;;;0.77;0.70;;;;;;;;;;10338888;28;20211;-79
2022/03/06 14:16:11;;;;;;;1.20;1.20;;;;;;;;;;10350626;28;20224;-78
2022/03/06 14:21:23;;;;;;;1.30;0.85;;;;;;;;;;10318231;28;20647;-77
2022/03/06 14:26:26;;;;;;;0.90;0.90;;;;;;;;;;10357841;28;20232;-78
2022/03/06 14:31:27;;;;;;;1.33;1.27;;;;;;;;;;10337088;28;20600;-78
2022/03/06 14:36:29;;;;;;;0.70;0.70;;;;;;;;;;10340450;28;20271;-77
2022/03/06 14:41:30;;;;;;;1.58;0.68;;;;;;;;;;10343095;28;20223;-78
2022/03/06 14:46:31;;;;;;;0.80;0.80;;;;;;;;;;10344797;28;20219;-79
2022/03/06 14:51:32;;;;;;;0.70;0.70;;;;;;;;;;10331612;28;20296;-77
2022/03/06 14:56:35;;;;;;;3.00;1.30;;;;;;;;;;10336864;28;20215;-78
2022/03/06 15:01:36;;;;;;;1.08;1.08;;;;;;;;;;10340654;28;20212;-78
2022/03/06 15:06:38;;;;;;;0.93;0.93;;;;;;;;;;10338942;28;20284;-77
2022/03/06 15:11:39;;;;;;;1.00;1.00;;;;;;;;;;10336764;28;20227;-78
2022/03/06 15:16:40;;;;;;;3.38;3.08;;;;;;;;;;10336772;28;20366;-73
2022/03/06 15:21:42;;;;;;;1.20;1.20;;;;;;;;;;10341974;28;20224;-77
2022/03/06 15:26:44;;;;;;;1.30;1.30;;;;;;;;;;10348057;28;20704;-76
2022/03/06 15:31:46;;;;;;;1.48;1.00;;;;;;;;;;10343617;28;20224;-75
2022/03/06 15:36:47;;;;;;;1.70;1.60;;;;;;;;;;10340079;28;20219;-77
2022/03/06 15:41:48;;;;;;;2.45;2.28;;;;;;;;;;10365042;28;20269;-79
2022/03/06 15:46:49;;;;;;;2.00;1.90;;;;;;;;;;10335330;28;20199;-77
2022/03/06 15:51:50;;;;;;;2.17;1.95;;;;;;;;;;10334780;28;20196;-77
2022/03/06 15:56:51;;;;;;;1.83;1.73;;;;;;;;;;10367986;28;20335;-80
2022/03/06 16:01:53;;;;;;;1.38;1.33;;;;;;;;;;10352334;28;20216;-80
2022/03/06 16:06:54;;;;;;;1.88;1.77;;;;;;;;;;10338020;28;20890;-77
2022/03/06 16:11:56;;;;;;;1.33;1.33;;;;;;;;;;10343884;28;20199;-78
2022/03/06 16:16:57;;;;;;;3.63;1.75;;;;;;;;;;10338245;28;20216;-77
2022/03/06 16:21:58;;;;;;;1.73;1.63;;;;;;;;;;10337910;28;20211;-78
2022/03/06 16:26:59;;;;;;;1.95;1.70;;;;;;;;;;10336168;28;20288;-77
2022/03/06 16:32:00;;;;;;;2.42;2.33;;;;;;;;;;10341463;28;20700;-77
2022/03/06 16:37:01;;;;;;;2.25;2.15;;;;;;;;;;10335448;28;20213;-78
2022/03/06 16:42:02;;;;;;;1.90;1.90;;;;;;;;;;10335419;28;20611;-81
2022/03/06 16:47:04;;;;;;;2.30;1.77;;;;;;;;;;10363728;28;20778;-80
2022/03/06 16:52:06;;;;;;;1.92;1.83;;;;;;;;;;10334803;28;20643;-78
2022/03/06 16:57:08;;;;;;;2.53;2.40;;;;;;;;;;10333853;28;20218;-74
2022/03/06 17:02:09;;;;;;;2.70;2.50;;;;;;;;;;10330741;28;20255;-76
2022/03/06 17:07:10;;;;;;;2.33;2.15;;;;;;;;;;10323851;28;20208;-75
2022/03/06 17:12:11;;;;;;;2.72;1.98;;;;;;;;;;10330406;28;20244;-77
2022/03/06 17:17:13;;;;;;;2.50;2.40;;;;;;;;;;10333799;28;20770;-75
2022/03/06 17:22:14;;;;;;;2.67;2.58;;;;;;;;;;10338221;28;20200;-77
2022/03/06 17:27:15;;;;;;;5.60;5.20;;;;;;;;;;10345662;28;20224;-79
2022/03/06 17:32:16;;;;;;;5.20;4.70;;;;;;;;;;10377319;28;20220;-77
2022/03/06 17:37:17;;;;;;;5.88;4.90;;;;;;;;;;10342528;28;20215;-79
2022/03/06 17:42:18;;;;;;;4.13;3.85;;;;;;;;;;10359257;28;20225;-77
2022/03/06 17:47:21;;;;;;;5.53;3.05;;;;;;;;;;10337166;28;20212;-77
2022/03/06 17:52:22;;;;;;;2.67;2.47;;;;;;;;;;10340694;28;20215;-79
2022/03/06 17:57:24;;;;;;;5.28;4.88;;;;;;;;;;10359952;28;20216;-77
2022/03/06 18:02:25;;;;;;;5.43;4.97;;;;;;;;;;10341266;28;20244;-77
2022/03/06 18:07:26;;;;;;;11.48;9.60;;;;;;;;;;10338738;28;20207;-78
2022/03/06 18:12:27;;;;;;;10.07;8.10;;;;;;;;;;10339484;28;20196;-78
2022/03/06 18:17:29;;;;;;;8.32;6.38;;;;;;;;;;10342112;28;20216;-77
2022/03/06 18:22:30;;;;;;;4.28;3.90;;;;;;;;;;10339738;28;20580;-77
2022/03/06 18:27:31;;;;;;;4.50;4.20;;;;;;;;;;10340776;28;20212;-77
2022/03/06 18:32:32;;;;;;;5.88;3.83;;;;;;;;;;10337019;28;20223;-77
2022/03/06 18:37:33;;;;;;;4.22;3.92;;;;;;;;;;10332474;28;20274;-77
2022/03/06 18:42:34;;;;;;;4.78;4.38;;;;;;;;;;10327073;28;20232;-78
2022/03/06 18:47:36;;;;;;;14.02;7.82;;;;;;;;;;10333325;28;22063;-77
2022/03/06 18:52:38;;;;;;;14.75;8.30;;;;;;;;;;10332556;28;20805;-77
2022/03/06 18:57:39;;;;;;;6.22;5.72;;;;;;;;;;10336413;28;20215;-77
2022/03/06 19:02:40;;;;;;;7.57;6.20;;;;;;;;;;10344511;28;20208;-72
2022/03/06 19:07:41;;;;;;;11.00;8.95;;;;;;;;;;10368639;28;20215;-76
2022/03/06 19:12:42;;;;;;;5.43;5.00;;;;;;;;;;10379862;28;20216;-77
2022/03/06 19:17:43;;;;;;;5.80;4.47;;;;;;;;;;10373466;28;20299;-77
2022/03/06 19:22:44;;;;;;;4.97;4.57;;;;;;;;;;10343199;28;20204;-77
2022/03/06 19:27:45;;;;;;;4.07;3.78;;;;;;;;;;10349552;28;20208;-77
2022/03/06 19:32:46;;;;;;;5.43;4.97;;;;;;;;;;10342028;28;20299;-75
2022/03/06 19:37:47;;;;;;;5.82;5.25;;;;;;;;;;10334543;28;20208;-75
2022/03/06 19:42:49;;;;;;;6.03;5.20;;;;;;;;;;10343394;28;20678;-79
2022/03/06 19:47:50;;;;;;;10.23;7.20;;;;;;;;;;10373211;28;20196;-80
2022/03/06 19:52:51;;;;;;;10.13;7.43;;;;;;;;;;10345199;28;20204;-81
2022/03/06 19:57:53;;;;;;;13.13;9.10;;;;;;;;;;10340610;28;20295;-78
2022/03/06 20:02:54;;;;;;;14.98;8.55;;;;;;;;;;10348342;28;20224;-80
2022/03/06 20:07:55;;;;;;;9.57;8.30;;;;;;;;;;10354781;28;20274;-76
2022/03/06 20:12:56;;;;;;;8.73;5.90;;;;;;;;;;10354790;28;20286;-77
2022/03/06 20:17:57;;;;;;;7.00;6.30;;;;;;;;;;10376688;28;20775;-76
2022/03/06 20:22:58;;;;;;;7.30;6.00;;;;;;;;;;10344654;28;20191;-76
2022/03/06 20:27:59;;;;;;;5.47;4.97;;;;;;;;;;10343698;28;20204;-76
2022/03/06 20:33:01;;;;;;;4.63;4.28;;;;;;;;;;10340263;28;20219;-77
2022/03/06 20:38:02;;;;;;;4.20;3.90;;;;;;;;;;10370864;28;20239;-76
2022/03/06 20:43:04;;;;;;;4.80;4.43;;;;;;;;;;10370356;28;20263;-76
2022/03/06 20:48:05;;;;;;;3.50;3.30;;;;;;;;;;10339489;28;20239;-76
2022/03/06 20:53:06;;;;;;;3.45;3.17;;;;;;;;;;10374960;28;20204;-77
2022/03/06 20:58:08;;;;;;;3.25;2.97;;;;;;;;;;10368384;28;20212;-77
2022/03/06 21:03:09;;;;;;;2.53;2.22;;;;;;;;;;10348355;28;20716;-77
2022/03/06 21:08:11;;;;;;;2.78;2.67;;;;;;;;;;10346632;28;20204;-77
2022/03/06 21:13:12;;;;;;;2.78;2.60;;;;;;;;;;10346036;28;20208;-77
2022/03/06 21:18:14;;;;;;;2.40;2.30;;;;;;;;;;10340192;28;20212;-77
2022/03/06 21:23:18;;;;;;;3.08;2.88;;;;;;;;;;10344743;28;20209;-77
2022/03/06 21:28:20;;;;;;;3.30;3.10;;;;;;;;;;10342363;28;20235;-77
2022/03/06 21:33:21;;;;;;;2.95;2.70;;;;;;;;;;10374862;28;20217;-77
2022/03/06 21:38:22;;;;;;;3.88;2.45;;;;;;;;;;10346650;28;20232;-74
2022/03/06 21:43:24;;;;;;;3.05;2.95;;;;;;;;;;10347513;28;20616;-77
2022/03/06 21:48:25;;;;;;;2.83;2.70;;;;;;;;;;10343609;28;20192;-78
2022/03/06 21:53:26;;;;;;;4.15;3.13;;;;;;;;;;10346132;28;20722;-77
2022/03/06 21:58:27;;;;;;;3.25;3.15;;;;;;;;;;10371427;28;20212;-77
2022/03/06 22:03:28;;;;;;;2.92;2.80;;;;;;;;;;10344320;28;20216;-77
2022/03/06 22:08:29;;;;;;;3.15;3.05;;;;;;;;;;10372262;28;20234;-79
2022/03/06 22:13:31;;;;;;;2.78;2.67;;;;;;;;;;10342949;28;20211;-77
2022/03/06 22:18:32;;;;;;;3.63;3.33;;;;;;;;;;10346174;28;20219;-76
2022/03/06 22:23:33;;;;;;;3.60;2.97;;;;;;;;;;10337283;28;20205;-78
2022/03/06 22:28:34;;;;;;;3.13;3.00;;;;;;;;;;10340884;28;20288;-76
2022/03/06 22:33:35;;;;;;;3.25;2.95;;;;;;;;;;10341200;28;20228;-79
2022/03/06 22:38:37;;;;;;;2.70;2.60;;;;;;;;;;10338599;28;20648;-77
2022/03/06 22:43:38;;;;;;;3.00;2.80;;;;;;;;;;10371367;28;20651;-76
2022/03/06 22:48:39;;;;;;;3.58;3.35;;;;;;;;;;10339788;28;20196;-76
2022/03/06 22:53:40;;;;;;;3.88;3.38;;;;;;;;;;10368700;28;20230;-74
2022/03/06 22:58:41;;;;;;;3.38;3.28;;;;;;;;;;10375928;28;20216;-78
2022/03/06 23:03:42;;;;;;;3.47;3.17;;;;;;;;;;10344346;28;20212;-76
2022/03/06 23:08:43;;;;;;;3.20;3.10;;;;;;;;;;10335299;28;20724;-78
2022/03/06 23:13:44;;;;;;;3.70;3.50;;;;;;;;;;10317440;28;20224;-76
2022/03/06 23:18:45;;;;;;;3.60;3.30;;;;;;;;;;10317411;28;20703;-77
2022/03/06 23:23:46;;;;;;;3.97;3.58;;;;;;;;;;10316065;28;20200;-76
2022/03/06 23:28:47;;;;;;;3.97;3.67;;;;;;;;;;10315927;28;20581;-77
2022/03/06 23:33:48;;;;;;;4.50;3.75;;;;;;;;;;10316987;28;20283;-77
2022/03/06 23:38:49;;;;;;;3.70;3.50;;;;;;;;;;10314928;28;20256;-76
2022/03/06 23:43:51;;;;;;;4.10;3.00;;;;;;;;;;10318155;28;20201;-77
2022/03/06 23:48:52;;;;;;;3.40;3.20;;;;;;;;;;10317588;28;20207;-78
2022/03/06 23:53:53;;;;;;;4.32;4.03;;;;;;;;;;10328403;28;20794;-77
2022/03/06 23:58:54;;;;;;;3.70;3.40;;;;;;;;;;10327393;28;20212;-77
